sensor_id;sensor_type;location;lat;lon;timestamp;pressure;altitude;pressure_sealevel;temperature;humidity
10470;BME280;5282;47.052;15.458;2023-04-19T00:00:33;97718.00;;;9.60;100.00
10470;BME280;5282;47.052;15.458;2023-04-19T00:03:04;97703.22;;;9.64;100.00
10470;BME280;5282;47.052;15.458;2023-04-19T00:05:36;97704.94;;;9.65;100.00
10470;BME280;5282;47.052;15.458;2023-04-19T00:08:04;97710.09;;;9.58;100.00
10470;BME280;5282;47.052;15.458;2023-04-19T00:10:39;97697.13;;;9.53;100.00
10470;BME280;5282;47.052;15.458;2023-04-19T00:13:15;97683.69;;;9.53;100.00
10470;BME280;5282;47.052;15.458;2023-04-19T00:15:43;97682.84;;;9.53;100.00
10470;BME280;5282;47.052;15.458;2023-04-19T00:18:18;97678.31;;;9.53;100.00
10470;BME280;5282;47.052;15.458;2023-04-19T00:20:48;97672.56;;;9.48;100.00
10470;BME280;5282;47.052;15.458;2023-04-19T00:23:18;97667.25;;;9.56;100.00
10470;BME280;5282;47.052;15.458;2023-04-19T00:25:47;97655.81;;;9.54;100.00
10470;BME280;5282;47.052;15.458;2023-04-19T00:28:28;97652.41;;;9.52;100.00
10470;BME280;5282;47.052;15.458;2023-04-19T00:30:58;97651.59;;;9.52;100.00
10470;BME280;5282;47.052;15.458;2023-04-19T00:33:27;97655.97;;;9.53;100.00
10470;BME280;5282;47.052;15.458;2023-04-19T00:35:58;97645.34;;;9.51;100.00
10470;BME280;5282;47.052;15.458;2023-04-19T00:38:33;97632.81;;;9.60;100.00
10470;BME280;5282;47.052;15.458;2023-04-19T00:41:04;97644.09;;;9.64;100.00
10470;BME280;5282;47.052;15.458;2023-04-19T00:43:36;97637.53;;;9.66;100.00
10470;BME280;5282;47.052;15.458;2023-04-19T00:46:06;97636.03;;;9.64;100.00
10470;BME280;5282;47.052;15.458;2023-04-19T00:48:35;97631.31;;;9.57;100.00
10470;BME280;5282;47.052;15.458;2023-04-19T00:51:06;97625.75;;;9.59;100.00
10470;BME280;5282;47.052;15.458;2023-04-19T00:53:37;97621.75;;;9.63;100.00
10470;BME280;5282;47.052;15.458;2023-04-19T00:56:08;97614.69;;;9.62;100.00
10470;BME280;5282;47.052;15.458;2023-04-19T00:58:42;97619.59;;;9.67;100.00
10470;BME280;5282;47.052;15.458;2023-04-19T01:01:09;97616.25;;;9.73;100.00
10470;BME280;5282;47.052;15.458;2023-04-19T01:03:40;97613.56;;;9.73;100.00
10470;BME280;5282;47.052;15.458;2023-04-19T01:06:07;97615.94;;;9.76;100.00
10470;BME280;5282;47.052;15.458;2023-04-19T01:08:35;97621.69;;;9.81;100.00
10470;BME280;5282;47.052;15.458;2023-04-19T01:11:02;97620.81;;;9.81;100.00
10470;BME280;5282;47.052;15.458;2023-04-19T01:13:29;97623.50;;;9.81;100.00
10470;BME280;5282;47.052;15.458;2023-04-19T01:15:58;97623.69;;;9.79;100.00
10470;BME280;5282;47.052;15.458;2023-04-19T01:18:26;97616.66;;;9.86;100.00
10470;BME280;5282;47.052;15.458;2023-04-19T01:20:58;97615.81;;;9.86;100.00
10470;BME280;5282;47.052;15.458;2023-04-19T01:23:29;97617.50;;;9.87;100.00
10470;BME280;5282;47.052;15.458;2023-04-19T01:25:57;97611.97;;;9.97;100.00
10470;BME280;5282;47.052;15.458;2023-04-19T01:28:25;97614.03;;;9.95;100.00
10470;BME280;5282;47.052;15.458;2023-04-19T01:30:52;97607.75;;;9.86;100.00
10470;BME280;5282;47.052;15.458;2023-04-19T01:33:19;97616.16;;;9.91;100.00
10470;BME280;5282;47.052;15.458;2023-04-19T01:35:47;97610.28;;;9.87;100.00
10470;BME280;5282;47.052;15.458;2023-04-19T01:38:14;97612.56;;;9.74;100.00
10470;BME280;5282;47.052;15.458;2023-04-19T01:40:43;97609.59;;;9.85;100.00
10470;BME280;5282;47.052;15.458;2023-04-19T01:43:12;97609.59;;;9.85;100.00
10470;BME280;5282;47.052;15.458;2023-04-19T01:45:39;97603.97;;;9.70;100.00
10470;BME280;5282;47.052;15.458;2023-04-19T01:48:06;97610.22;;;9.71;100.00
10470;BME280;5282;47.052;15.458;2023-04-19T01:50:36;97606.53;;;9.72;100.00
10470;BME280;5282;47.052;15.458;2023-04-19T01:53:03;97593.38;;;9.69;100.00
10470;BME280;5282;47.052;15.458;2023-04-19T01:55:37;97603.28;;;9.68;100.00
10470;BME280;5282;47.052;15.458;2023-04-19T01:58:06;97607.53;;;9.71;100.00
10470;BME280;5282;47.052;15.458;2023-04-19T02:00:33;97602.75;;;9.65;100.00
10470;BME280;5282;47.052;15.458;2023-04-19T02:03:00;97598.25;;;9.65;100.00
10470;BME280;5282;47.052;15.458;2023-04-19T02:05:27;97595.19;;;9.60;100.00
10470;BME280;5282;47.052;15.458;2023-04-19T02:07:54;97590.28;;;9.55;100.00
10470;BME280;5282;47.052;15.458;2023-04-19T02:10:22;97585.44;;;9.59;100.00
10470;BME280;5282;47.052;15.458;2023-04-19T02:12:48;97590.78;;;9.51;100.00
10470;BME280;5282;47.052;15.458;2023-04-19T02:15:18;97581.50;;;9.45;100.00
10470;BME280;5282;47.052;15.458;2023-04-19T02:17:46;97581.34;;;9.47;100.00
10470;BME280;5282;47.052;15.458;2023-04-19T02:20:19;97587.66;;;9.37;100.00
10470;BME280;5282;47.052;15.458;2023-04-19T02:22:46;97575.75;;;9.40;100.00
10470;BME280;5282;47.052;15.458;2023-04-19T02:25:13;97586.88;;;9.45;100.00
10470;BME280;5282;47.052;15.458;2023-04-19T02:27:41;97579.34;;;9.49;100.00
10470;BME280;5282;47.052;15.458;2023-04-19T02:30:09;97575.75;;;9.40;100.00
10470;BME280;5282;47.052;15.458;2023-04-19T02:32:40;97568.81;;;9.29;100.00
10470;BME280;5282;47.052;15.458;2023-04-19T02:35:08;97566.13;;;9.29;100.00
10470;BME280;5282;47.052;15.458;2023-04-19T02:37:35;97565.63;;;9.25;100.00
10470;BME280;5282;47.052;15.458;2023-04-19T02:40:05;97563.94;;;9.24;100.00
10470;BME280;5282;47.052;15.458;2023-04-19T02:42:33;97558.84;;;9.21;100.00
10470;BME280;5282;47.052;15.458;2023-04-19T02:45:00;97564.84;;;9.15;100.00
10470;BME280;5282;47.052;15.458;2023-04-19T02:47:27;97563.84;;;9.16;100.00
10470;BME280;5282;47.052;15.458;2023-04-19T02:49:55;97565.88;;;9.14;100.00
10470;BME280;5282;47.052;15.458;2023-04-19T02:52:22;97561.75;;;9.02;100.00
10470;BME280;5282;47.052;15.458;2023-04-19T02:54:49;97557.59;;;9.07;100.00
10470;BME280;5282;47.052;15.458;2023-04-19T02:57:16;97551.94;;;8.92;100.00
10470;BME280;5282;47.052;15.458;2023-04-19T02:59:44;97545.25;;;8.97;100.00
10470;BME280;5282;47.052;15.458;2023-04-19T03:02:11;97544.97;;;9.00;100.00
10470;BME280;5282;47.052;15.458;2023-04-19T03:04:38;97546.94;;;8.98;100.00
10470;BME280;5282;47.052;15.458;2023-04-19T03:07:07;97550.34;;;8.82;100.00
10470;BME280;5282;47.052;15.458;2023-04-19T03:09:34;97546.38;;;8.86;100.00
10470;BME280;5282;47.052;15.458;2023-04-19T03:12:01;97544.38;;;8.70;100.00
10470;BME280;5282;47.052;15.458;2023-04-19T03:14:28;97540.16;;;8.67;100.00
10470;BME280;5282;47.052;15.458;2023-04-19T03:16:57;97544.38;;;8.70;100.00
10470;BME280;5282;47.052;15.458;2023-04-19T03:19:24;97532.97;;;8.68;100.00
10470;BME280;5282;47.052;15.458;2023-04-19T03:21:51;97528.59;;;8.67;100.00
10470;BME280;5282;47.052;15.458;2023-04-19T03:24:26;97520.84;;;8.63;100.00
10470;BME280;5282;47.052;15.458;2023-04-19T03:26:56;97518.19;;;8.63;100.00
10470;BME280;5282;47.052;15.458;2023-04-19T03:29:23;97514.03;;;8.51;100.00
10470;BME280;5282;47.052;15.458;2023-04-19T03:31:50;97514.66;;;8.27;100.00
10470;BME280;5282;47.052;15.458;2023-04-19T03:34:17;97514.78;;;8.07;100.00
10470;BME280;5282;47.052;15.458;2023-04-19T03:36:45;97516.69;;;8.15;100.00
10470;BME280;5282;47.052;15.458;2023-04-19T03:39:12;97519.09;;;8.18;100.00
10470;BME280;5282;47.052;15.458;2023-04-19T03:41:40;97511.28;;;8.25;100.00
10470;BME280;5282;47.052;15.458;2023-04-19T03:44:07;97507.66;;;8.16;100.00
10470;BME280;5282;47.052;15.458;2023-04-19T03:46:34;97506.06;;;8.05;100.00
10470;BME280;5282;47.052;15.458;2023-04-19T03:49:00;97509.03;;;8.02;100.00
10470;BME280;5282;47.052;15.458;2023-04-19T03:51:27;97509.19;;;8.00;100.00
10470;BME280;5282;47.052;15.458;2023-04-19T03:53:54;97514.16;;;7.95;100.00
10470;BME280;5282;47.052;15.458;2023-04-19T03:56:21;97513.22;;;7.86;100.00
10470;BME280;5282;47.052;15.458;2023-04-19T03:58:51;97520.34;;;7.78;100.00
10470;BME280;5282;47.052;15.458;2023-04-19T04:01:17;97515.94;;;7.59;100.00
10470;BME280;5282;47.052;15.458;2023-04-19T04:03:45;97515.03;;;7.68;100.00
10470;BME280;5282;47.052;15.458;2023-04-19T04:06:11;97514.72;;;7.53;100.00
10470;BME280;5282;47.052;15.458;2023-04-19T04:08:38;97520.25;;;7.41;100.00
10470;BME280;5282;47.052;15.458;2023-04-19T04:11:05;97517.97;;;7.47;100.00
10470;BME280;5282;47.052;15.458;2023-04-19T04:13:32;97519.66;;;7.48;100.00
10470;BME280;5282;47.052;15.458;2023-04-19T04:16:00;97514.75;;;7.43;100.00
10470;BME280;5282;47.052;15.458;2023-04-19T04:18:27;97522.75;;;7.53;100.00
10470;BME280;5282;47.052;15.458;2023-04-19T04:20:55;97527.41;;;7.51;100.00
10470;BME280;5282;47.052;15.458;2023-04-19T04:23:22;97523.41;;;7.55;100.00
10470;BME280;5282;47.052;15.458;2023-04-19T04:25:55;97521.44;;;7.57;100.00
10470;BME280;5282;47.052;15.458;2023-04-19T04:28:23;97519.75;;;7.56;100.00
10470;BME280;5282;47.052;15.458;2023-04-19T04:30:51;97524.41;;;7.54;100.00
10470;BME280;5282;47.052;15.458;2023-04-19T04:33:19;97522.88;;;7.51;100.00
10470;BME280;5282;47.052;15.458;2023-04-19T04:35:46;97518.91;;;7.55;100.00
10470;BME280;5282;47.052;15.458;2023-04-19T04:38:13;97522.63;;;7.45;100.00
10470;BME280;5282;47.052;15.458;2023-04-19T04:40:40;97526.28;;;7.44;100.00
10470;BME280;5282;47.052;15.458;2023-04-19T04:43:06;97525.09;;;7.56;100.00
10470;BME280;5282;47.052;15.458;2023-04-19T04:45:34;97523.81;;;7.60;100.00
10470;BME280;5282;47.052;15.458;2023-04-19T04:48:02;97527.50;;;7.59;100.00
10470;BME280;5282;47.052;15.458;2023-04-19T04:50:32;97536.06;;;7.63;100.00
10470;BME280;5282;47.052;15.458;2023-04-19T04:52:59;97532.84;;;7.59;100.00
10470;BME280;5282;47.052;15.458;2023-04-19T04:55:26;97528.41;;;7.50;100.00
10470;BME280;5282;47.052;15.458;2023-04-19T04:57:52;97535.03;;;7.46;100.00
10470;BME280;5282;47.052;15.458;2023-04-19T05:00:22;97536.16;;;7.53;100.00
10470;BME280;5282;47.052;15.458;2023-04-19T05:02:51;97527.41;;;7.51;100.00
10470;BME280;5282;47.052;15.458;2023-04-19T05:05:19;97525.75;;;7.40;100.00
10470;BME280;5282;47.052;15.458;2023-04-19T05:07:47;97525.81;;;7.58;100.00
10470;BME280;5282;47.052;15.458;2023-04-19T05:10:13;97528.75;;;7.65;100.00
10470;BME280;5282;47.052;15.458;2023-04-19T05:12:40;97523.38;;;7.65;100.00
10470;BME280;5282;47.052;15.458;2023-04-19T05:15:07;97528.47;;;7.58;100.00
10470;BME280;5282;47.052;15.458;2023-04-19T05:17:37;97526.16;;;7.73;100.00
10470;BME280;5282;47.052;15.458;2023-04-19T05:20:05;97523.94;;;7.86;100.00
10470;BME280;5282;47.052;15.458;2023-04-19T05:22:32;97523.25;;;7.84;100.00
10470;BME280;5282;47.052;15.458;2023-04-19T05:25:00;97521.22;;;7.96;100.00
10470;BME280;5282;47.052;15.458;2023-04-19T05:27:27;97525.13;;;8.02;100.00
10470;BME280;5282;47.052;15.458;2023-04-19T05:29:54;97528.28;;;8.15;100.00
10470;BME280;5282;47.052;15.458;2023-04-19T05:32:23;97516.88;;;8.31;100.00
10470;BME280;5282;47.052;15.458;2023-04-19T05:34:50;97514.94;;;8.42;100.00
10470;BME280;5282;47.052;15.458;2023-04-19T05:37:17;97509.13;;;8.46;100.00
10470;BME280;5282;47.052;15.458;2023-04-19T05:39:44;97512.19;;;8.52;100.00
10470;BME280;5282;47.052;15.458;2023-04-19T05:42:13;97501.50;;;8.78;100.00
10470;BME280;5282;47.052;15.458;2023-04-19T05:44:39;97505.06;;;8.87;100.00
10470;BME280;5282;47.052;15.458;2023-04-19T05:47:06;97502.78;;;8.92;100.00
10470;BME280;5282;47.052;15.458;2023-04-19T05:49:33;97507.41;;;9.08;100.00
10470;BME280;5282;47.052;15.458;2023-04-19T05:52:00;97503.63;;;9.19;100.00
10470;BME280;5282;47.052;15.458;2023-04-19T05:54:27;97501.47;;;9.31;100.00
10470;BME280;5282;47.052;15.458;2023-04-19T05:56:59;97502.56;;;9.46;100.00
10470;BME280;5282;47.052;15.458;2023-04-19T05:59:27;97493.88;;;9.61;100.00
10470;BME280;5282;47.052;15.458;2023-04-19T06:01:54;97502.19;;;9.76;100.00
10470;BME280;5282;47.052;15.458;2023-04-19T06:04:21;97498.31;;;9.86;100.00
10470;BME280;5282;47.052;15.458;2023-04-19T06:06:48;97498.53;;;10.01;100.00
10470;BME280;5282;47.052;15.458;2023-04-19T06:09:15;97496.69;;;10.10;100.00
10470;BME280;5282;47.052;15.458;2023-04-19T06:11:43;97494.00;;;10.18;100.00
10470;BME280;5282;47.052;15.458;2023-04-19T06:14:10;97487.66;;;10.28;100.00
10470;BME280;5282;47.052;15.458;2023-04-19T06:16:39;97491.19;;;10.28;100.00
10470;BME280;5282;47.052;15.458;2023-04-19T06:19:06;97489.34;;;10.37;100.00
10470;BME280;5282;47.052;15.458;2023-04-19T06:21:33;97483.16;;;10.45;100.00
10470;BME280;5282;47.052;15.458;2023-04-19T06:24:00;97490.38;;;10.53;100.00
10470;BME280;5282;47.052;15.458;2023-04-19T06:26:28;97493.75;;;10.55;100.00
10470;BME280;5282;47.052;15.458;2023-04-19T06:28:55;97490.38;;;10.61;100.00
10470;BME280;5282;47.052;15.458;2023-04-19T06:31:22;97488.38;;;10.63;100.00
10470;BME280;5282;47.052;15.458;2023-04-19T06:33:50;97487.00;;;10.67;100.00
10470;BME280;5282;47.052;15.458;2023-04-19T06:36:17;97487.03;;;10.75;100.00
10470;BME280;5282;47.052;15.458;2023-04-19T06:38:44;97488.53;;;10.78;100.00
10470;BME280;5282;47.052;15.458;2023-04-19T06:41:11;97483.13;;;10.86;100.00
10470;BME280;5282;47.052;15.458;2023-04-19T06:43:38;97485.63;;;10.88;100.00
10470;BME280;5282;47.052;15.458;2023-04-19T06:46:07;97472.13;;;11.04;100.00
10470;BME280;5282;47.052;15.458;2023-04-19T06:48:34;97481.56;;;11.00;100.00
10470;BME280;5282;47.052;15.458;2023-04-19T06:51:03;97477.72;;;11.03;100.00
10470;BME280;5282;47.052;15.458;2023-04-19T06:53:32;97469.78;;;11.09;100.00
10470;BME280;5282;47.052;15.458;2023-04-19T06:56:01;97472.44;;;11.18;100.00
10470;BME280;5282;47.052;15.458;2023-04-19T06:58:29;97462.16;;;11.21;100.00
10470;BME280;5282;47.052;15.458;2023-04-19T07:00:56;97467.03;;;11.26;100.00
10470;BME280;5282;47.052;15.458;2023-04-19T07:03:23;97466.50;;;11.31;100.00
10470;BME280;5282;47.052;15.458;2023-04-19T07:05:50;97469.00;;;11.40;100.00
10470;BME280;5282;47.052;15.458;2023-04-19T07:08:25;97463.53;;;11.57;100.00
10470;BME280;5282;47.052;15.458;2023-04-19T07:10:52;97458.13;;;11.65;97.99
10470;BME280;5282;47.052;15.458;2023-04-19T07:13:21;97456.38;;;11.72;95.04
10470;BME280;5282;47.052;15.458;2023-04-19T07:15:47;97451.25;;;11.86;95.99
10470;BME280;5282;47.052;15.458;2023-04-19T07:18:14;97453.88;;;11.94;94.45
10470;BME280;5282;47.052;15.458;2023-04-19T07:20:43;97453.22;;;12.00;89.85
10470;BME280;5282;47.052;15.458;2023-04-19T07:23:13;97449.78;;;12.07;91.22
10470;BME280;5282;47.052;15.458;2023-04-19T07:25:42;97443.28;;;12.24;90.70
10470;BME280;5282;47.052;15.458;2023-04-19T07:28:09;97447.28;;;12.28;84.14
10470;BME280;5282;47.052;15.458;2023-04-19T07:30:36;97442.41;;;12.47;88.22
10470;BME280;5282;47.052;15.458;2023-04-19T07:33:03;97438.28;;;12.36;88.87
10470;BME280;5282;47.052;15.458;2023-04-19T07:35:30;97439.19;;;12.28;78.78
10470;BME280;5282;47.052;15.458;2023-04-19T07:37:57;97436.25;;;12.38;81.97
10470;BME280;5282;47.052;15.458;2023-04-19T07:40:24;97433.56;;;12.53;78.78
10470;BME280;5282;47.052;15.458;2023-04-19T07:42:54;97426.53;;;12.67;83.78
10470;BME280;5282;47.052;15.458;2023-04-19T07:45:21;97424.91;;;12.96;76.30
10470;BME280;5282;47.052;15.458;2023-04-19T07:47:48;97423.22;;;12.95;75.85
10470;BME280;5282;47.052;15.458;2023-04-19T07:50:16;97424.59;;;13.06;72.18
10470;BME280;5282;47.052;15.458;2023-04-19T07:52:43;97420.41;;;13.18;71.54
10470;BME280;5282;47.052;15.458;2023-04-19T07:55:10;97413.78;;;13.36;71.17
10470;BME280;5282;47.052;15.458;2023-04-19T07:57:37;97405.69;;;13.51;74.73
10470;BME280;5282;47.052;15.458;2023-04-19T08:00:06;97406.53;;;13.51;68.09
10470;BME280;5282;47.052;15.458;2023-04-19T08:02:36;97404.09;;;13.56;62.67
10470;BME280;5282;47.052;15.458;2023-04-19T08:05:03;97407.56;;;13.50;63.25
10470;BME280;5282;47.052;15.458;2023-04-19T08:07:30;97405.91;;;13.71;63.62
10470;BME280;5282;47.052;15.458;2023-04-19T08:09:57;97404.00;;;13.86;60.00
10470;BME280;5282;47.052;15.458;2023-04-19T08:12:23;97401.13;;;13.88;62.59
10470;BME280;5282;47.052;15.458;2023-04-19T08:14:51;97395.03;;;13.86;57.50
10470;BME280;5282;47.052;15.458;2023-04-19T08:17:19;97394.47;;;13.91;54.80
10470;BME280;5282;47.052;15.458;2023-04-19T08:19:50;97392.41;;;14.14;56.74
10470;BME280;5282;47.052;15.458;2023-04-19T08:22:18;97390.47;;;14.30;55.56
10470;BME280;5282;47.052;15.458;2023-04-19T08:24:47;97394.19;;;14.50;58.85
10470;BME280;5282;47.052;15.458;2023-04-19T08:27:14;97389.13;;;14.69;61.62
10470;BME280;5282;47.052;15.458;2023-04-19T08:29:41;97384.47;;;14.85;58.20
10470;BME280;5282;47.052;15.458;2023-04-19T08:32:08;97381.50;;;14.79;52.92
10470;BME280;5282;47.052;15.458;2023-04-19T08:34:37;97377.88;;;14.44;51.33
10470;BME280;5282;47.052;15.458;2023-04-19T08:37:04;97378.56;;;14.74;51.69
10470;BME280;5282;47.052;15.458;2023-04-19T08:39:33;97371.16;;;14.96;50.78
10470;BME280;5282;47.052;15.458;2023-04-19T08:42:03;97376.50;;;14.76;49.28
10470;BME280;5282;47.052;15.458;2023-04-19T08:44:31;97371.28;;;14.53;50.04
10470;BME280;5282;47.052;15.458;2023-04-19T08:46:59;97371.09;;;14.55;50.90
10470;BME280;5282;47.052;15.458;2023-04-19T08:49:28;97370.69;;;14.58;49.86
10470;BME280;5282;47.052;15.458;2023-04-19T08:51:58;97371.22;;;14.46;49.78
10470;BME280;5282;47.052;15.458;2023-04-19T08:54:27;97361.06;;;14.27;49.71
10470;BME280;5282;47.052;15.458;2023-04-19T08:56:55;97363.44;;;14.08;50.82
10470;BME280;5282;47.052;15.458;2023-04-19T08:59:24;97355.75;;;14.12;51.10
10470;BME280;5282;47.052;15.458;2023-04-19T09:01:51;97345.56;;;14.14;50.70
10470;BME280;5282;47.052;15.458;2023-04-19T09:04:19;97352.69;;;14.43;60.39
10470;BME280;5282;47.052;15.458;2023-04-19T09:06:45;97343.94;;;14.19;50.86
10470;BME280;5282;47.052;15.458;2023-04-19T09:09:15;97346.25;;;14.01;51.84
10470;BME280;5282;47.052;15.458;2023-04-19T09:11:42;97343.47;;;14.16;56.09
10470;BME280;5282;47.052;15.458;2023-04-19T09:14:10;97333.56;;;14.52;52.75
10470;BME280;5282;47.052;15.458;2023-04-19T09:16:37;97328.63;;;14.62;52.39
10470;BME280;5282;47.052;15.458;2023-04-19T09:19:05;97332.09;;;14.77;50.99
10470;BME280;5282;47.052;15.458;2023-04-19T09:21:34;97321.44;;;14.76;49.10
10470;BME280;5282;47.052;15.458;2023-04-19T09:24:01;97320.00;;;14.80;49.47
10470;BME280;5282;47.052;15.458;2023-04-19T09:26:30;97321.44;;;14.76;50.07
10470;BME280;5282;47.052;15.458;2023-04-19T09:29:00;97317.69;;;14.77;52.04
10470;BME280;5282;47.052;15.458;2023-04-19T09:31:28;97317.56;;;14.63;50.27
10470;BME280;5282;47.052;15.458;2023-04-19T09:33:55;97312.72;;;14.80;50.62
10470;BME280;5282;47.052;15.458;2023-04-19T09:36:26;97312.22;;;14.70;52.16
10470;BME280;5282;47.052;15.458;2023-04-19T09:38:53;97316.41;;;14.73;52.93
10470;BME280;5282;47.052;15.458;2023-04-19T09:41:20;97311.34;;;14.63;57.38
10470;BME280;5282;47.052;15.458;2023-04-19T09:43:49;97305.78;;;14.43;56.31
10470;BME280;5282;47.052;15.458;2023-04-19T09:46:30;97304.91;;;14.35;54.61
10470;BME280;5282;47.052;15.458;2023-04-19T09:49:17;97302.88;;;14.44;53.31
10470;BME280;5282;47.052;15.458;2023-04-19T09:51:46;97303.94;;;14.50;55.02
10470;BME280;5282;47.052;15.458;2023-04-19T09:54:15;97305.44;;;14.53;54.00
10470;BME280;5282;47.052;15.458;2023-04-19T09:56:42;97300.88;;;14.60;53.52
10470;BME280;5282;47.052;15.458;2023-04-19T09:59:11;97300.88;;;14.60;55.41
10470;BME280;5282;47.052;15.458;2023-04-19T10:01:42;97302.19;;;14.64;56.70
10470;BME280;5282;47.052;15.458;2023-04-19T10:04:11;97303.84;;;14.65;58.44
10470;BME280;5282;47.052;15.458;2023-04-19T10:06:39;97303.94;;;14.78;54.23
10470;BME280;5282;47.052;15.458;2023-04-19T10:09:06;97302.44;;;14.69;50.02
10470;BME280;5282;47.052;15.458;2023-04-19T10:11:36;97294.31;;;14.69;49.03
10470;BME280;5282;47.052;15.458;2023-04-19T10:14:05;97293.94;;;14.79;49.86
10470;BME280;5282;47.052;15.458;2023-04-19T10:16:35;97293.91;;;14.72;48.75
10470;BME280;5282;47.052;15.458;2023-04-19T10:19:07;97296.88;;;14.77;50.49
10470;BME280;5282;47.052;15.458;2023-04-19T10:21:35;97293.66;;;14.67;51.58
10470;BME280;5282;47.052;15.458;2023-04-19T10:24:03;97294.16;;;14.49;50.99
10470;BME280;5282;47.052;15.458;2023-04-19T10:27:04;97295.38;;;14.46;54.02
10470;BME280;5282;47.052;15.458;2023-04-19T10:29:57;97300.22;;;14.23;60.71
10470;BME280;5282;47.052;15.458;2023-04-19T10:32:36;97297.44;;;14.16;67.59
10470;BME280;5282;47.052;15.458;2023-04-19T10:35:07;97299.88;;;14.04;69.73
10470;BME280;5282;47.052;15.458;2023-04-19T10:37:37;97300.06;;;14.02;73.48
10470;BME280;5282;47.052;15.458;2023-04-19T10:40:06;97296.81;;;13.85;77.43
10470;BME280;5282;47.052;15.458;2023-04-19T10:45:37;97302.19;;;13.64;89.97
10470;BME280;5282;47.052;15.458;2023-04-19T10:48:05;97301.94;;;13.58;97.22
10470;BME280;5282;47.052;15.458;2023-04-19T10:50:56;97297.19;;;13.61;100.00
10470;BME280;5282;47.052;15.458;2023-04-19T10:53:41;97304.66;;;13.58;100.00
10470;BME280;5282;47.052;15.458;2023-04-19T10:56:08;97306.72;;;13.56;100.00
10470;BME280;5282;47.052;15.458;2023-04-19T11:01:37;97313.09;;;13.34;100.00
10470;BME280;5282;47.052;15.458;2023-04-19T11:04:07;97310.75;;;13.31;100.00
10470;BME280;5282;47.052;15.458;2023-04-19T11:06:35;97320.13;;;13.13;100.00
10470;BME280;5282;47.052;15.458;2023-04-19T11:09:02;97323.22;;;12.95;100.00
10470;BME280;5282;47.052;15.458;2023-04-19T11:11:32;97325.19;;;12.86;100.00
10470;BME280;5282;47.052;15.458;2023-04-19T11:14:01;97330.69;;;12.78;100.00
10470;BME280;5282;47.052;15.458;2023-04-19T11:16:28;97329.47;;;12.95;100.00
10470;BME280;5282;47.052;15.458;2023-04-19T11:18:55;97330.97;;;12.68;100.00
10470;BME280;5282;47.052;15.458;2023-04-19T11:21:24;97324.91;;;12.51;100.00
10470;BME280;5282;47.052;15.458;2023-04-19T11:24:05;97326.38;;;12.39;100.00
10470;BME280;5282;47.052;15.458;2023-04-19T11:26:32;97323.22;;;12.50;100.00
10470;BME280;5282;47.052;15.458;2023-04-19T11:28:59;97323.31;;;12.27;100.00
10470;BME280;5282;47.052;15.458;2023-04-19T11:31:27;97318.06;;;11.87;100.00
10470;BME280;5282;47.052;15.458;2023-04-19T11:33:54;97327.88;;;11.80;100.00
10470;BME280;5282;47.052;15.458;2023-04-19T11:36:20;97325.41;;;11.93;100.00
10470;BME280;5282;47.052;15.458;2023-04-19T11:38:49;97324.19;;;11.26;100.00
10470;BME280;5282;47.052;15.458;2023-04-19T11:41:16;97323.38;;;11.49;100.00
10470;BME280;5282;47.052;15.458;2023-04-19T11:43:42;97320.19;;;11.68;100.00
10470;BME280;5282;47.052;15.458;2023-04-19T11:46:12;97327.94;;;11.71;100.00
10470;BME280;5282;47.052;15.458;2023-04-19T11:48:49;97316.22;;;11.64;100.00
10470;BME280;5282;47.052;15.458;2023-04-19T11:51:16;97307.44;;;11.62;100.00
10470;BME280;5282;47.052;15.458;2023-04-19T11:53:44;97311.50;;;11.58;100.00
10470;BME280;5282;47.052;15.458;2023-04-19T11:56:12;97310.91;;;11.48;100.00
10470;BME280;5282;47.052;15.458;2023-04-19T11:58:41;97305.25;;;11.42;100.00
10470;BME280;5282;47.052;15.458;2023-04-19T12:01:10;97317.31;;;11.47;100.00
10470;BME280;5282;47.052;15.458;2023-04-19T12:03:40;97310.75;;;11.49;100.00
10470;BME280;5282;47.052;15.458;2023-04-19T12:06:10;97313.06;;;11.52;100.00
10470;BME280;5282;47.052;15.458;2023-04-19T12:08:41;97313.94;;;11.53;100.00
10470;BME280;5282;47.052;15.458;2023-04-19T12:11:08;97308.69;;;11.51;100.00
10470;BME280;5282;47.052;15.458;2023-04-19T12:13:37;97315.75;;;11.52;100.00
10470;BME280;5282;47.052;15.458;2023-04-19T12:16:05;97299.13;;;11.49;100.00
10470;BME280;5282;47.052;15.458;2023-04-19T12:21:12;97297.56;;;11.54;100.00
10470;BME280;5282;47.052;15.458;2023-04-19T12:23:49;97288.94;;;11.59;100.00
10470;BME280;5282;47.052;15.458;2023-04-19T12:26:16;97287.00;;;11.68;100.00
10470;BME280;5282;47.052;15.458;2023-04-19T12:28:44;97285.25;;;11.75;100.00
10470;BME280;5282;47.052;15.458;2023-04-19T12:31:11;97281.38;;;11.54;100.00
10470;BME280;5282;47.052;15.458;2023-04-19T12:33:38;97285.53;;;11.65;100.00
10470;BME280;5282;47.052;15.458;2023-04-19T12:36:05;97279.75;;;11.92;100.00
10470;BME280;5282;47.052;15.458;2023-04-19T12:38:32;97284.19;;;12.23;100.00
10470;BME280;5282;47.052;15.458;2023-04-19T12:40:59;97280.22;;;12.63;100.00
10470;BME280;5282;47.052;15.458;2023-04-19T12:43:26;97278.06;;;12.74;100.00
10470;BME280;5282;47.052;15.458;2023-04-19T12:45:56;97282.34;;;12.68;100.00
10470;BME280;5282;47.052;15.458;2023-04-19T12:48:23;97279.16;;;12.94;100.00
10470;BME280;5282;47.052;15.458;2023-04-19T12:50:50;97277.28;;;12.95;100.00
10470;BME280;5282;47.052;15.458;2023-04-19T12:53:17;97277.75;;;12.99;100.00
10470;BME280;5282;47.052;15.458;2023-04-19T12:55:44;97272.38;;;12.84;100.00
10470;BME280;5282;47.052;15.458;2023-04-19T12:58:12;97280.16;;;13.08;100.00
10470;BME280;5282;47.052;15.458;2023-04-19T13:00:38;97270.75;;;13.41;100.00
10470;BME280;5282;47.052;15.458;2023-04-19T13:03:07;97269.38;;;13.30;100.00
10470;BME280;5282;47.052;15.458;2023-04-19T13:05:34;97273.41;;;13.19;100.00
10470;BME280;5282;47.052;15.458;2023-04-19T13:08:01;97268.19;;;13.54;100.00
10470;BME280;5282;47.052;15.458;2023-04-19T13:10:27;97267.88;;;13.42;100.00
10470;BME280;5282;47.052;15.458;2023-04-19T13:12:54;97264.28;;;13.57;100.00